Saint Cloud, Wisconsin
Current Conditions -  °F | °C
As of 5:53 AM on Monday 26 Jan 2015 (Local Time) from KFLD Reporting Station
Broken Clouds Broken Clouds  
Wind Chill: 13°   Ceiling: 8000
Heat Index: 13°   Visibility: 10mi
Dew Point:   Wind: 0mph
Humidity: 81%   Direction: NA
Pressure: 29.94"   Gusts: NA
Location:  43.82°N, 88.17°W
Report Text: KFLD 261153Z AUTO 00000KT 10SM BKN080 M11/M13 A2994 RMK AO2 SLP156 60000 T11061133 11094 21122 56013
Loading
Personal Weather Stations






























Interactive Weather Map New forecast layout! Learn more

10-Day Weather Forecast

Advertisements
Track Severe Weather on mobile